Algiers, Louisiana
Current Conditions -  °F | °C
As of 4:35 AM on Monday 22 Dec 2014 (Local Time) from KVSH Reporting Station
Overcast Overcast  
Wind Chill: 14°   Ceiling: 7500
Heat Index: 14°   Visibility: 6mi
Dew Point: 12°   Wind: 0mph
Humidity: 88%   Direction: NA
Pressure: 29.87"   Gusts: NA
Location:  29.935°N, 90.0314°W
Report Text: KVSH 221035Z AUTO 00000KT 6SM FEW005 SCT012 OVC075 14/12 A2987 RMK AO1
Loading
Personal Weather Stations






























Interactive Weather Map New forecast layout! Learn more

10-Day Weather Forecast

Advertisements
Track Severe Weather on mobile